sensor_id;sensor_type;location;lat;lon;timestamp;P1;durP1;ratioP1;P2;durP2;ratioP2
44214;SDS011;29884;47.450;19.124;2022-09-29T00:01:09;2.95;;;1.63;;
44214;SDS011;29884;47.450;19.124;2022-09-29T00:03:35;4.30;;;1.70;;
44214;SDS011;29884;47.450;19.124;2022-09-29T00:06:01;2.30;;;1.70;;
44214;SDS011;29884;47.450;19.124;2022-09-29T00:08:28;4.53;;;1.75;;
44214;SDS011;29884;47.450;19.124;2022-09-29T00:10:54;2.55;;;1.90;;
44214;SDS011;29884;47.450;19.124;2022-09-29T00:13:21;2.92;;;1.80;;
44214;SDS011;29884;47.450;19.124;2022-09-29T00:15:54;2.20;;;1.98;;
44214;SDS011;29884;47.450;19.124;2022-09-29T00:18:21;3.78;;;1.90;;
44214;SDS011;29884;47.450;19.124;2022-09-29T00:20:54;4.03;;;2.30;;
44214;SDS011;29884;47.450;19.124;2022-09-29T00:23:43;2.60;;;1.60;;
44214;SDS011;29884;47.450;19.124;2022-09-29T00:28:50;5.50;;;2.08;;
44214;SDS011;29884;47.450;19.124;2022-09-29T00:31:18;2.53;;;1.73;;
44214;SDS011;29884;47.450;19.124;2022-09-29T00:33:44;2.88;;;2.08;;
44214;SDS011;29884;47.450;19.124;2022-09-29T00:36:12;2.45;;;1.80;;
44214;SDS011;29884;47.450;19.124;2022-09-29T00:38:39;3.75;;;2.00;;
44214;SDS011;29884;47.450;19.124;2022-09-29T00:41:06;3.13;;;1.90;;
44214;SDS011;29884;47.450;19.124;2022-09-29T00:43:49;4.22;;;1.60;;
44214;SDS011;29884;47.450;19.124;2022-09-29T00:46:16;3.80;;;1.83;;
44214;SDS011;29884;47.450;19.124;2022-09-29T00:48:47;2.27;;;1.87;;
44214;SDS011;29884;47.450;19.124;2022-09-29T00:51:13;2.85;;;1.92;;
44214;SDS011;29884;47.450;19.124;2022-09-29T00:53:40;2.53;;;1.98;;
44214;SDS011;29884;47.450;19.124;2022-09-29T00:56:09;2.67;;;1.80;;
44214;SDS011;29884;47.450;19.124;2022-09-29T00:58:54;2.70;;;1.73;;
44214;SDS011;29884;47.450;19.124;2022-09-29T01:01:24;2.58;;;2.00;;
44214;SDS011;29884;47.450;19.124;2022-09-29T01:03:53;3.47;;;1.80;;
44214;SDS011;29884;47.450;19.124;2022-09-29T01:06:26;3.15;;;1.80;;
44214;SDS011;29884;47.450;19.124;2022-09-29T01:09:00;3.60;;;2.10;;
44214;SDS011;29884;47.450;19.124;2022-09-29T01:11:29;3.08;;;1.98;;
44214;SDS011;29884;47.450;19.124;2022-09-29T01:13:55;2.90;;;2.00;;
44214;SDS011;29884;47.450;19.124;2022-09-29T01:16:27;2.70;;;1.90;;
44214;SDS011;29884;47.450;19.124;2022-09-29T01:18:54;3.35;;;2.13;;
44214;SDS011;29884;47.450;19.124;2022-09-29T01:23:54;5.85;;;1.92;;
44214;SDS011;29884;47.450;19.124;2022-09-29T01:31:56;3.72;;;2.00;;
44214;SDS011;29884;47.450;19.124;2022-09-29T01:40:13;3.10;;;2.05;;
44214;SDS011;29884;47.450;19.124;2022-09-29T01:42:47;2.75;;;2.00;;
44214;SDS011;29884;47.450;19.124;2022-09-29T01:45:24;5.05;;;2.67;;
44214;SDS011;29884;47.450;19.124;2022-09-29T01:47:57;3.05;;;2.10;;
44214;SDS011;29884;47.450;19.124;2022-09-29T01:53:03;3.67;;;2.50;;
44214;SDS011;29884;47.450;19.124;2022-09-29T01:55:32;5.05;;;2.45;;
44214;SDS011;29884;47.450;19.124;2022-09-29T01:58:06;3.53;;;2.70;;
44214;SDS011;29884;47.450;19.124;2022-09-29T02:00:37;4.35;;;2.63;;
44214;SDS011;29884;47.450;19.124;2022-09-29T02:05:46;4.13;;;2.67;;
44214;SDS011;29884;47.450;19.124;2022-09-29T02:10:55;4.68;;;2.80;;
44214;SDS011;29884;47.450;19.124;2022-09-29T02:13:26;4.35;;;3.33;;
44214;SDS011;29884;47.450;19.124;2022-09-29T02:15:56;3.00;;;2.70;;
44214;SDS011;29884;47.450;19.124;2022-09-29T02:18:26;4.35;;;2.67;;
44214;SDS011;29884;47.450;19.124;2022-09-29T02:20:57;4.13;;;2.75;;
44214;SDS011;29884;47.450;19.124;2022-09-29T02:23:23;4.35;;;3.08;;
44214;SDS011;29884;47.450;19.124;2022-09-29T02:25:49;5.15;;;3.08;;
44214;SDS011;29884;47.450;19.124;2022-09-29T02:28:16;4.07;;;3.25;;
44214;SDS011;29884;47.450;19.124;2022-09-29T02:30:43;3.83;;;3.00;;
44214;SDS011;29884;47.450;19.124;2022-09-29T02:33:22;3.63;;;2.85;;
44214;SDS011;29884;47.450;19.124;2022-09-29T02:36:02;5.20;;;2.90;;
44214;SDS011;29884;47.450;19.124;2022-09-29T02:38:43;4.80;;;3.53;;
44214;SDS011;29884;47.450;19.124;2022-09-29T02:47:13;6.32;;;4.00;;
44214;SDS011;29884;47.450;19.124;2022-09-29T02:53:03;9.23;;;4.47;;
44214;SDS011;29884;47.450;19.124;2022-09-29T03:00:49;6.28;;;4.15;;
44214;SDS011;29884;47.450;19.124;2022-09-29T03:03:16;8.07;;;4.53;;
44214;SDS011;29884;47.450;19.124;2022-09-29T03:05:42;6.53;;;4.25;;
44214;SDS011;29884;47.450;19.124;2022-09-29T03:08:08;5.47;;;4.05;;
44214;SDS011;29884;47.450;19.124;2022-09-29T03:10:33;5.18;;;4.45;;
44214;SDS011;29884;47.450;19.124;2022-09-29T03:12:59;5.20;;;4.07;;
44214;SDS011;29884;47.450;19.124;2022-09-29T03:15:25;5.78;;;3.97;;
44214;SDS011;29884;47.450;19.124;2022-09-29T03:17:53;6.28;;;3.83;;
44214;SDS011;29884;47.450;19.124;2022-09-29T03:20:21;6.20;;;4.43;;
44214;SDS011;29884;47.450;19.124;2022-09-29T03:22:46;6.35;;;4.10;;
44214;SDS011;29884;47.450;19.124;2022-09-29T03:25:12;7.30;;;4.70;;
44214;SDS011;29884;47.450;19.124;2022-09-29T03:27:38;6.13;;;4.50;;
44214;SDS011;29884;47.450;19.124;2022-09-29T03:30:04;7.53;;;4.35;;
44214;SDS011;29884;47.450;19.124;2022-09-29T03:32:31;5.57;;;4.03;;
44214;SDS011;29884;47.450;19.124;2022-09-29T03:34:56;6.30;;;3.88;;
44214;SDS011;29884;47.450;19.124;2022-09-29T03:37:22;7.72;;;4.53;;
44214;SDS011;29884;47.450;19.124;2022-09-29T03:39:48;5.93;;;4.20;;
44214;SDS011;29884;47.450;19.124;2022-09-29T03:42:14;6.13;;;4.22;;
44214;SDS011;29884;47.450;19.124;2022-09-29T03:44:40;5.93;;;4.05;;
44214;SDS011;29884;47.450;19.124;2022-09-29T03:47:06;5.75;;;4.07;;
44214;SDS011;29884;47.450;19.124;2022-09-29T03:49:32;9.80;;;4.65;;
44214;SDS011;29884;47.450;19.124;2022-09-29T03:51:58;6.90;;;4.38;;
44214;SDS011;29884;47.450;19.124;2022-09-29T03:54:23;7.10;;;4.45;;
44214;SDS011;29884;47.450;19.124;2022-09-29T03:56:51;7.07;;;5.00;;
44214;SDS011;29884;47.450;19.124;2022-09-29T03:59:17;5.65;;;4.13;;
44214;SDS011;29884;47.450;19.124;2022-09-29T04:01:43;8.15;;;4.55;;
44214;SDS011;29884;47.450;19.124;2022-09-29T04:04:08;7.00;;;4.40;;
44214;SDS011;29884;47.450;19.124;2022-09-29T04:06:34;5.53;;;4.80;;
44214;SDS011;29884;47.450;19.124;2022-09-29T04:09:00;6.70;;;4.63;;
44214;SDS011;29884;47.450;19.124;2022-09-29T04:11:26;7.43;;;4.85;;
44214;SDS011;29884;47.450;19.124;2022-09-29T04:13:52;7.15;;;5.18;;
44214;SDS011;29884;47.450;19.124;2022-09-29T04:16:18;7.43;;;4.80;;
44214;SDS011;29884;47.450;19.124;2022-09-29T04:18:44;5.85;;;4.30;;
44214;SDS011;29884;47.450;19.124;2022-09-29T04:21:10;8.73;;;5.15;;
44214;SDS011;29884;47.450;19.124;2022-09-29T04:23:36;8.43;;;4.80;;
44214;SDS011;29884;47.450;19.124;2022-09-29T04:26:03;8.77;;;5.22;;
44214;SDS011;29884;47.450;19.124;2022-09-29T04:28:32;7.50;;;5.47;;
44214;SDS011;29884;47.450;19.124;2022-09-29T04:30:59;12.70;;;5.65;;
44214;SDS011;29884;47.450;19.124;2022-09-29T04:33:25;7.40;;;5.30;;
44214;SDS011;29884;47.450;19.124;2022-09-29T04:35:52;6.32;;;5.50;;
44214;SDS011;29884;47.450;19.124;2022-09-29T04:38:17;7.30;;;5.50;;
44214;SDS011;29884;47.450;19.124;2022-09-29T04:40:43;7.60;;;5.45;;
44214;SDS011;29884;47.450;19.124;2022-09-29T04:43:09;8.02;;;5.45;;
44214;SDS011;29884;47.450;19.124;2022-09-29T04:45:34;9.23;;;5.63;;
44214;SDS011;29884;47.450;19.124;2022-09-29T04:48:00;8.05;;;6.07;;
44214;SDS011;29884;47.450;19.124;2022-09-29T04:50:26;10.02;;;6.45;;
44214;SDS011;29884;47.450;19.124;2022-09-29T04:52:52;7.28;;;5.18;;
44214;SDS011;29884;47.450;19.124;2022-09-29T04:55:17;8.30;;;6.13;;
44214;SDS011;29884;47.450;19.124;2022-09-29T04:57:43;7.63;;;5.78;;
44214;SDS011;29884;47.450;19.124;2022-09-29T05:00:10;9.70;;;6.25;;
44214;SDS011;29884;47.450;19.124;2022-09-29T05:02:37;7.15;;;6.03;;
44214;SDS011;29884;47.450;19.124;2022-09-29T05:05:03;7.60;;;5.70;;
44214;SDS011;29884;47.450;19.124;2022-09-29T05:07:30;8.88;;;6.43;;
44214;SDS011;29884;47.450;19.124;2022-09-29T05:09:58;10.95;;;6.80;;
44214;SDS011;29884;47.450;19.124;2022-09-29T05:12:23;10.43;;;7.15;;
44214;SDS011;29884;47.450;19.124;2022-09-29T05:14:49;9.00;;;7.22;;
44214;SDS011;29884;47.450;19.124;2022-09-29T05:17:15;9.80;;;7.43;;
44214;SDS011;29884;47.450;19.124;2022-09-29T05:19:40;9.23;;;6.68;;
44214;SDS011;29884;47.450;19.124;2022-09-29T05:22:06;12.68;;;7.10;;
44214;SDS011;29884;47.450;19.124;2022-09-29T05:24:32;11.10;;;7.03;;
44214;SDS011;29884;47.450;19.124;2022-09-29T05:26:57;9.15;;;6.80;;
44214;SDS011;29884;47.450;19.124;2022-09-29T05:29:23;9.30;;;6.95;;
44214;SDS011;29884;47.450;19.124;2022-09-29T05:31:49;10.63;;;6.95;;
44214;SDS011;29884;47.450;19.124;2022-09-29T05:34:15;9.35;;;6.22;;
44214;SDS011;29884;47.450;19.124;2022-09-29T05:36:41;9.60;;;6.68;;
44214;SDS011;29884;47.450;19.124;2022-09-29T05:39:07;7.97;;;6.53;;
44214;SDS011;29884;47.450;19.124;2022-09-29T05:41:33;8.00;;;6.25;;
44214;SDS011;29884;47.450;19.124;2022-09-29T05:43:59;10.63;;;6.85;;
44214;SDS011;29884;47.450;19.124;2022-09-29T05:46:25;9.98;;;6.80;;
44214;SDS011;29884;47.450;19.124;2022-09-29T05:48:51;10.02;;;7.15;;
44214;SDS011;29884;47.450;19.124;2022-09-29T05:51:19;11.98;;;8.02;;
44214;SDS011;29884;47.450;19.124;2022-09-29T05:53:48;15.60;;;9.38;;
44214;SDS011;29884;47.450;19.124;2022-09-29T05:56:15;11.20;;;7.60;;
44214;SDS011;29884;47.450;19.124;2022-09-29T05:58:43;10.20;;;6.63;;
44214;SDS011;29884;47.450;19.124;2022-09-29T06:01:10;9.05;;;6.78;;
44214;SDS011;29884;47.450;19.124;2022-09-29T06:03:41;8.60;;;6.35;;
44214;SDS011;29884;47.450;19.124;2022-09-29T06:06:10;9.02;;;6.55;;
44214;SDS011;29884;47.450;19.124;2022-09-29T06:08:38;9.98;;;7.15;;
44214;SDS011;29884;47.450;19.124;2022-09-29T06:11:13;10.05;;;7.50;;
44214;SDS011;29884;47.450;19.124;2022-09-29T06:13:49;9.25;;;7.20;;
44214;SDS011;29884;47.450;19.124;2022-09-29T06:16:17;9.20;;;7.50;;
44214;SDS011;29884;47.450;19.124;2022-09-29T06:18:44;12.55;;;8.20;;
44214;SDS011;29884;47.450;19.124;2022-09-29T06:21:11;15.40;;;7.78;;
44214;SDS011;29884;47.450;19.124;2022-09-29T06:23:38;18.50;;;8.32;;
44214;SDS011;29884;47.450;19.124;2022-09-29T06:26:09;19.27;;;8.57;;
44214;SDS011;29884;47.450;19.124;2022-09-29T06:28:37;14.88;;;8.75;;
44214;SDS011;29884;47.450;19.124;2022-09-29T06:31:04;12.25;;;8.63;;
44214;SDS011;29884;47.450;19.124;2022-09-29T06:33:31;12.75;;;8.38;;
44214;SDS011;29884;47.450;19.124;2022-09-29T06:35:58;12.07;;;7.93;;
44214;SDS011;29884;47.450;19.124;2022-09-29T06:38:47;13.05;;;8.65;;
44214;SDS011;29884;47.450;19.124;2022-09-29T06:41:12;13.00;;;9.05;;
44214;SDS011;29884;47.450;19.124;2022-09-29T06:43:38;12.68;;;8.27;;
44214;SDS011;29884;47.450;19.124;2022-09-29T06:46:04;13.57;;;8.93;;
44214;SDS011;29884;47.450;19.124;2022-09-29T06:48:30;13.90;;;8.70;;
44214;SDS011;29884;47.450;19.124;2022-09-29T06:50:55;12.70;;;9.13;;
44214;SDS011;29884;47.450;19.124;2022-09-29T06:53:22;11.93;;;9.15;;
44214;SDS011;29884;47.450;19.124;2022-09-29T06:55:51;11.25;;;8.95;;
44214;SDS011;29884;47.450;19.124;2022-09-29T06:58:17;10.45;;;8.35;;
44214;SDS011;29884;47.450;19.124;2022-09-29T07:00:43;9.77;;;7.85;;
44214;SDS011;29884;47.450;19.124;2022-09-29T07:03:09;13.02;;;8.57;;
44214;SDS011;29884;47.450;19.124;2022-09-29T07:05:34;11.40;;;8.95;;
44214;SDS011;29884;47.450;19.124;2022-09-29T07:08:00;12.48;;;8.73;;
44214;SDS011;29884;47.450;19.124;2022-09-29T07:10:27;9.70;;;8.13;;
44214;SDS011;29884;47.450;19.124;2022-09-29T07:12:53;10.85;;;8.18;;
44214;SDS011;29884;47.450;19.124;2022-09-29T07:15:19;11.05;;;7.45;;
44214;SDS011;29884;47.450;19.124;2022-09-29T07:17:45;10.63;;;7.57;;
44214;SDS011;29884;47.450;19.124;2022-09-29T07:20:15;12.82;;;9.38;;
44214;SDS011;29884;47.450;19.124;2022-09-29T07:22:41;11.60;;;9.40;;
44214;SDS011;29884;47.450;19.124;2022-09-29T07:25:10;15.05;;;10.70;;
44214;SDS011;29884;47.450;19.124;2022-09-29T07:27:35;15.48;;;11.38;;
44214;SDS011;29884;47.450;19.124;2022-09-29T07:30:01;10.80;;;8.57;;
44214;SDS011;29884;47.450;19.124;2022-09-29T07:32:28;8.38;;;7.57;;
44214;SDS011;29884;47.450;19.124;2022-09-29T07:34:56;8.63;;;6.85;;
44214;SDS011;29884;47.450;19.124;2022-09-29T07:37:22;10.77;;;7.22;;
44214;SDS011;29884;47.450;19.124;2022-09-29T07:39:49;10.63;;;7.85;;
44214;SDS011;29884;47.450;19.124;2022-09-29T07:42:15;9.80;;;7.75;;
44214;SDS011;29884;47.450;19.124;2022-09-29T07:44:42;8.85;;;7.72;;
44214;SDS011;29884;47.450;19.124;2022-09-29T07:47:08;8.27;;;7.18;;
44214;SDS011;29884;47.450;19.124;2022-09-29T07:49:33;9.35;;;7.90;;
44214;SDS011;29884;47.450;19.124;2022-09-29T07:51:59;9.48;;;6.97;;
44214;SDS011;29884;47.450;19.124;2022-09-29T07:54:25;5.53;;;5.03;;
44214;SDS011;29884;47.450;19.124;2022-09-29T07:56:51;6.15;;;5.05;;
44214;SDS011;29884;47.450;19.124;2022-09-29T07:59:17;5.28;;;4.75;;
44214;SDS011;29884;47.450;19.124;2022-09-29T08:01:42;5.00;;;4.45;;
44214;SDS011;29884;47.450;19.124;2022-09-29T08:04:08;4.43;;;3.97;;
44214;SDS011;29884;47.450;19.124;2022-09-29T08:06:35;3.80;;;3.50;;
44214;SDS011;29884;47.450;19.124;2022-09-29T08:09:01;11.57;;;8.43;;
44214;SDS011;29884;47.450;19.124;2022-09-29T08:11:27;8.02;;;6.43;;
44214;SDS011;29884;47.450;19.124;2022-09-29T08:13:53;5.13;;;4.63;;
44214;SDS011;29884;47.450;19.124;2022-09-29T08:16:18;4.28;;;3.25;;
44214;SDS011;29884;47.450;19.124;2022-09-29T08:18:44;4.35;;;2.80;;
44214;SDS011;29884;47.450;19.124;2022-09-29T08:21:11;3.05;;;2.65;;
44214;SDS011;29884;47.450;19.124;2022-09-29T08:23:39;3.55;;;2.58;;
44214;SDS011;29884;47.450;19.124;2022-09-29T08:26:11;3.78;;;2.17;;
44214;SDS011;29884;47.450;19.124;2022-09-29T08:28:38;4.20;;;2.08;;
44214;SDS011;29884;47.450;19.124;2022-09-29T08:31:05;3.08;;;2.47;;
44214;SDS011;29884;47.450;19.124;2022-09-29T08:33:39;3.63;;;2.28;;
44214;SDS011;29884;47.450;19.124;2022-09-29T08:36:06;3.67;;;2.53;;
44214;SDS011;29884;47.450;19.124;2022-09-29T08:38:42;2.88;;;2.13;;
44214;SDS011;29884;47.450;19.124;2022-09-29T08:44:08;5.00;;;4.25;;
44214;SDS011;29884;47.450;19.124;2022-09-29T08:46:48;8.25;;;7.35;;
44214;SDS011;29884;47.450;19.124;2022-09-29T08:49:20;8.25;;;7.45;;
44214;SDS011;29884;47.450;19.124;2022-09-29T08:52:01;7.57;;;6.95;;
44214;SDS011;29884;47.450;19.124;2022-09-29T08:54:35;7.30;;;6.70;;
44214;SDS011;29884;47.450;19.124;2022-09-29T08:57:04;6.38;;;5.78;;
44214;SDS011;29884;47.450;19.124;2022-09-29T08:59:31;8.43;;;7.63;;
44214;SDS011;29884;47.450;19.124;2022-09-29T09:17:54;5.35;;;4.85;;
44214;SDS011;29884;47.450;19.124;2022-09-29T09:20:40;4.88;;;4.32;;
44214;SDS011;29884;47.450;19.124;2022-09-29T09:25:51;4.13;;;3.30;;
44214;SDS011;29884;47.450;19.124;2022-09-29T09:28:30;3.53;;;3.22;;
44214;SDS011;29884;47.450;19.124;2022-09-29T09:31:00;4.38;;;3.58;;
44214;SDS011;29884;47.450;19.124;2022-09-29T09:33:39;5.22;;;3.92;;
44214;SDS011;29884;47.450;19.124;2022-09-29T09:36:10;4.30;;;3.67;;
44214;SDS011;29884;47.450;19.124;2022-09-29T09:41:31;3.63;;;3.17;;
44214;SDS011;29884;47.450;19.124;2022-09-29T09:44:14;3.40;;;2.75;;
44214;SDS011;29884;47.450;19.124;2022-09-29T09:46:59;3.15;;;2.40;;
44214;SDS011;29884;47.450;19.124;2022-09-29T09:49:40;2.72;;;2.42;;
44214;SDS011;29884;47.450;19.124;2022-09-29T09:52:09;4.70;;;2.40;;
44214;SDS011;29884;47.450;19.124;2022-09-29T09:54:43;2.42;;;2.22;;
44214;SDS011;29884;47.450;19.124;2022-09-29T09:57:18;4.57;;;3.15;;
44214;SDS011;29884;47.450;19.124;2022-09-29T10:00:15;3.47;;;2.90;;
44214;SDS011;29884;47.450;19.124;2022-09-29T10:02:51;4.95;;;3.08;;
44214;SDS011;29884;47.450;19.124;2022-09-29T10:05:20;3.53;;;3.17;;
44214;SDS011;29884;47.450;19.124;2022-09-29T10:10:54;4.03;;;2.80;;
44214;SDS011;29884;47.450;19.124;2022-09-29T10:13:23;2.63;;;2.42;;
44214;SDS011;29884;47.450;19.124;2022-09-29T10:15:55;2.50;;;2.30;;
44214;SDS011;29884;47.450;19.124;2022-09-29T10:18:28;3.63;;;2.65;;
44214;SDS011;29884;47.450;19.124;2022-09-29T10:23:49;2.83;;;2.40;;
44214;SDS011;29884;47.450;19.124;2022-09-29T10:26:17;3.57;;;2.07;;
44214;SDS011;29884;47.450;19.124;2022-09-29T10:32:05;3.25;;;1.98;;
44214;SDS011;29884;47.450;19.124;2022-09-29T10:35:02;5.07;;;2.03;;
44214;SDS011;29884;47.450;19.124;2022-09-29T10:37:37;2.10;;;1.70;;
44214;SDS011;29884;47.450;19.124;2022-09-29T10:42:35;1.58;;;1.17;;
44214;SDS011;29884;47.450;19.124;2022-09-29T10:50:23;2.95;;;0.90;;
44214;SDS011;29884;47.450;19.124;2022-09-29T10:52:51;0.90;;;0.80;;
44214;SDS011;29884;47.450;19.124;2022-09-29T10:57:49;1.50;;;0.95;;
44214;SDS011;29884;47.450;19.124;2022-09-29T11:00:30;2.72;;;0.70;;
44214;SDS011;29884;47.450;19.124;2022-09-29T11:05:53;0.80;;;0.60;;
44214;SDS011;29884;47.450;19.124;2022-09-29T11:08:23;1.30;;;0.63;;
44214;SDS011;29884;47.450;19.124;2022-09-29T11:13:33;0.35;;;0.20;;
44214;SDS011;29884;47.450;19.124;2022-09-29T11:16:12;0.95;;;0.20;;
44214;SDS011;29884;47.450;19.124;2022-09-29T11:18:43;0.38;;;0.20;;
44214;SDS011;29884;47.450;19.124;2022-09-29T11:35:15;0.73;;;0.10;;
44214;SDS011;29884;47.450;19.124;2022-09-29T11:40:33;0.65;;;0.10;;
44214;SDS011;29884;47.450;19.124;2022-09-29T11:49:17;2.63;;;0.20;;
44214;SDS011;29884;47.450;19.124;2022-09-29T11:52:10;0.50;;;0.30;;
44214;SDS011;29884;47.450;19.124;2022-09-29T11:54:46;1.98;;;0.40;;
44214;SDS011;29884;47.450;19.124;2022-09-29T11:57:15;1.27;;;0.40;;
44214;SDS011;29884;47.450;19.124;2022-09-29T12:00:13;0.43;;;0.20;;
44214;SDS011;29884;47.450;19.124;2022-09-29T12:11:06;1.33;;;0.40;;
44214;SDS011;29884;47.450;19.124;2022-09-29T12:17:10;0.50;;;0.20;;
44214;SDS011;29884;47.450;19.124;2022-09-29T12:19:41;0.77;;;0.30;;
44214;SDS011;29884;47.450;19.124;2022-09-29T12:22:10;1.52;;;0.30;;
44214;SDS011;29884;47.450;19.124;2022-09-29T12:24:46;0.43;;;0.20;;
44214;SDS011;29884;47.450;19.124;2022-09-29T12:27:21;0.20;;;0.10;;
44214;SDS011;29884;47.450;19.124;2022-09-29T12:32:38;0.20;;;0.20;;
44214;SDS011;29884;47.450;19.124;2022-09-29T12:35:11;1.05;;;0.30;;
44214;SDS011;29884;47.450;19.124;2022-09-29T12:40:36;1.15;;;0.50;;
44214;SDS011;29884;47.450;19.124;2022-09-29T12:43:04;0.55;;;0.30;;
44214;SDS011;29884;47.450;19.124;2022-09-29T12:45:47;1.25;;;0.35;;
44214;SDS011;29884;47.450;19.124;2022-09-29T12:57:05;0.50;;;0.40;;
44214;SDS011;29884;47.450;19.124;2022-09-29T13:07:46;1.90;;;0.40;;
44214;SDS011;29884;47.450;19.124;2022-09-29T13:16:05;1.55;;;0.40;;
44214;SDS011;29884;47.450;19.124;2022-09-29T13:27:08;3.40;;;0.32;;
44214;SDS011;29884;47.450;19.124;2022-09-29T13:29:43;0.80;;;0.40;;
44214;SDS011;29884;47.450;19.124;2022-09-29T13:32:13;2.10;;;0.40;;
44214;SDS011;29884;47.450;19.124;2022-09-29T13:34:44;0.47;;;0.30;;
44214;SDS011;29884;47.450;19.124;2022-09-29T13:37:22;0.85;;;0.40;;
44214;SDS011;29884;47.450;19.124;2022-09-29T13:42:39;1.67;;;0.30;;
44214;SDS011;29884;47.450;19.124;2022-09-29T14:00:52;1.55;;;0.35;;
44214;SDS011;29884;47.450;19.124;2022-09-29T14:03:24;0.57;;;0.40;;
44214;SDS011;29884;47.450;19.124;2022-09-29T14:06:15;0.40;;;0.30;;
44214;SDS011;29884;47.450;19.124;2022-09-29T14:08:57;1.23;;;0.35;;
44214;SDS011;29884;47.450;19.124;2022-09-29T14:30:20;0.88;;;0.30;;
44214;SDS011;29884;47.450;19.124;2022-09-29T14:33:02;0.50;;;0.30;;
44214;SDS011;29884;47.450;19.124;2022-09-29T14:38:32;0.45;;;0.30;;
44214;SDS011;29884;47.450;19.124;2022-09-29T15:02:30;0.50;;;0.20;;
44214;SDS011;29884;47.450;19.124;2022-09-29T15:04:59;0.60;;;0.30;;
44214;SDS011;29884;47.450;19.124;2022-09-29T15:07:49;0.73;;;0.32;;
44214;SDS011;29884;47.450;19.124;2022-09-29T15:10:23;1.13;;;0.50;;
44214;SDS011;29884;47.450;19.124;2022-09-29T15:15:55;1.13;;;0.40;;
44214;SDS011;29884;47.450;19.124;2022-09-29T15:21:20;0.77;;;0.55;;
44214;SDS011;29884;47.450;19.124;2022-09-29T15:26:46;1.80;;;0.50;;
44214;SDS011;29884;47.450;19.124;2022-09-29T15:29:13;2.15;;;0.50;;
44214;SDS011;29884;47.450;19.124;2022-09-29T15:31:42;2.25;;;0.40;;
44214;SDS011;29884;47.450;19.124;2022-09-29T15:34:11;2.00;;;0.90;;
44214;SDS011;29884;47.450;19.124;2022-09-29T15:36:42;1.60;;;0.80;;
44214;SDS011;29884;47.450;19.124;2022-09-29T15:42:09;1.98;;;0.60;;
44214;SDS011;29884;47.450;19.124;2022-09-29T15:44:39;1.45;;;0.60;;
44214;SDS011;29884;47.450;19.124;2022-09-29T15:47:19;1.10;;;0.50;;
44214;SDS011;29884;47.450;19.124;2022-09-29T15:49:51;0.82;;;0.40;;
44214;SDS011;29884;47.450;19.124;2022-09-29T15:52:17;2.75;;;0.50;;
44214;SDS011;29884;47.450;19.124;2022-09-29T15:54:47;0.70;;;0.50;;
44214;SDS011;29884;47.450;19.124;2022-09-29T16:05:20;1.10;;;0.63;;
44214;SDS011;29884;47.450;19.124;2022-09-29T16:07:48;1.00;;;0.55;;
44214;SDS011;29884;47.450;19.124;2022-09-29T16:10:18;0.90;;;0.50;;
44214;SDS011;29884;47.450;19.124;2022-09-29T16:12:53;2.05;;;0.60;;
44214;SDS011;29884;47.450;19.124;2022-09-29T16:17:53;1.42;;;0.50;;
44214;SDS011;29884;47.450;19.124;2022-09-29T16:20:29;1.40;;;0.60;;
44214;SDS011;29884;47.450;19.124;2022-09-29T16:25:45;1.10;;;0.80;;
44214;SDS011;29884;47.450;19.124;2022-09-29T16:28:31;1.15;;;0.80;;
44214;SDS011;29884;47.450;19.124;2022-09-29T16:31:17;4.35;;;0.95;;
44214;SDS011;29884;47.450;19.124;2022-09-29T16:33:45;2.00;;;1.00;;
44214;SDS011;29884;47.450;19.124;2022-09-29T16:36:28;2.92;;;0.80;;
44214;SDS011;29884;47.450;19.124;2022-09-29T16:39:01;1.88;;;0.93;;
44214;SDS011;29884;47.450;19.124;2022-09-29T16:41:29;3.40;;;0.70;;
44214;SDS011;29884;47.450;19.124;2022-09-29T16:46:58;1.60;;;0.80;;
44214;SDS011;29884;47.450;19.124;2022-09-29T16:49:37;3.10;;;0.80;;
44214;SDS011;29884;47.450;19.124;2022-09-29T16:52:24;2.85;;;0.95;;
44214;SDS011;29884;47.450;19.124;2022-09-29T16:54:51;3.90;;;0.95;;
44214;SDS011;29884;47.450;19.124;2022-09-29T16:57:23;4.30;;;1.00;;
44214;SDS011;29884;47.450;19.124;2022-09-29T16:59:57;2.38;;;1.05;;
44214;SDS011;29884;47.450;19.124;2022-09-29T17:02:25;2.53;;;1.02;;
44214;SDS011;29884;47.450;19.124;2022-09-29T17:04:52;3.08;;;1.00;;
44214;SDS011;29884;47.450;19.124;2022-09-29T17:07:19;2.95;;;1.38;;
44214;SDS011;29884;47.450;19.124;2022-09-29T17:09:59;2.20;;;1.13;;
44214;SDS011;29884;47.450;19.124;2022-09-29T17:12:28;7.00;;;1.20;;
44214;SDS011;29884;47.450;19.124;2022-09-29T17:14:55;2.67;;;1.33;;
44214;SDS011;29884;47.450;19.124;2022-09-29T17:17:25;2.97;;;1.40;;
44214;SDS011;29884;47.450;19.124;2022-09-29T17:19:53;2.00;;;1.13;;
44214;SDS011;29884;47.450;19.124;2022-09-29T17:24:49;3.47;;;1.23;;
44214;SDS011;29884;47.450;19.124;2022-09-29T17:27:14;2.42;;;1.35;;
44214;SDS011;29884;47.450;19.124;2022-09-29T17:29:59;1.95;;;1.20;;
44214;SDS011;29884;47.450;19.124;2022-09-29T17:32:24;2.42;;;1.30;;
44214;SDS011;29884;47.450;19.124;2022-09-29T17:34:51;3.05;;;1.48;;
44214;SDS011;29884;47.450;19.124;2022-09-29T17:37:16;2.38;;;1.50;;
44214;SDS011;29884;47.450;19.124;2022-09-29T17:39:43;3.67;;;1.65;;
44214;SDS011;29884;47.450;19.124;2022-09-29T17:42:10;5.13;;;2.03;;
44214;SDS011;29884;47.450;19.124;2022-09-29T17:44:37;4.88;;;2.55;;
44214;SDS011;29884;47.450;19.124;2022-09-29T17:47:17;3.95;;;2.08;;
44214;SDS011;29884;47.450;19.124;2022-09-29T17:49:43;4.88;;;2.60;;
44214;SDS011;29884;47.450;19.124;2022-09-29T17:52:23;2.97;;;2.25;;
44214;SDS011;29884;47.450;19.124;2022-09-29T17:54:49;6.53;;;2.60;;
44214;SDS011;29884;47.450;19.124;2022-09-29T17:57:17;6.97;;;3.03;;
44214;SDS011;29884;47.450;19.124;2022-09-29T17:59:47;3.42;;;2.58;;
44214;SDS011;29884;47.450;19.124;2022-09-29T18:02:13;7.00;;;2.92;;
44214;SDS011;29884;47.450;19.124;2022-09-29T18:04:39;5.30;;;2.72;;
44214;SDS011;29884;47.450;19.124;2022-09-29T18:07:15;3.50;;;2.50;;
44214;SDS011;29884;47.450;19.124;2022-09-29T18:09:41;3.97;;;2.20;;
44214;SDS011;29884;47.450;19.124;2022-09-29T18:12:07;3.45;;;2.10;;
44214;SDS011;29884;47.450;19.124;2022-09-29T18:14:32;4.03;;;2.03;;
44214;SDS011;29884;47.450;19.124;2022-09-29T18:17:18;9.63;;;2.63;;
44214;SDS011;29884;47.450;19.124;2022-09-29T18:19:43;4.82;;;2.15;;
44214;SDS011;29884;47.450;19.124;2022-09-29T18:22:10;6.22;;;2.60;;
44214;SDS011;29884;47.450;19.124;2022-09-29T18:24:36;4.15;;;2.28;;
44214;SDS011;29884;47.450;19.124;2022-09-29T18:27:02;5.22;;;2.30;;
44214;SDS011;29884;47.450;19.124;2022-09-29T18:29:28;3.70;;;2.40;;
44214;SDS011;29884;47.450;19.124;2022-09-29T18:31:56;5.00;;;2.63;;
44214;SDS011;29884;47.450;19.124;2022-09-29T18:34:21;3.58;;;2.65;;
44214;SDS011;29884;47.450;19.124;2022-09-29T18:36:47;6.95;;;3.40;;
44214;SDS011;29884;47.450;19.124;2022-09-29T18:39:13;7.80;;;3.38;;
44214;SDS011;29884;47.450;19.124;2022-09-29T18:41:39;5.97;;;3.40;;
44214;SDS011;29884;47.450;19.124;2022-09-29T18:44:15;4.55;;;3.20;;
44214;SDS011;29884;47.450;19.124;2022-09-29T18:46:44;4.38;;;3.85;;
44214;SDS011;29884;47.450;19.124;2022-09-29T18:49:11;6.20;;;3.75;;
44214;SDS011;29884;47.450;19.124;2022-09-29T18:51:38;6.03;;;3.10;;
44214;SDS011;29884;47.450;19.124;2022-09-29T18:54:04;4.47;;;3.28;;
44214;SDS011;29884;47.450;19.124;2022-09-29T18:56:31;5.32;;;3.67;;
44214;SDS011;29884;47.450;19.124;2022-09-29T18:58:57;5.10;;;3.35;;
44214;SDS011;29884;47.450;19.124;2022-09-29T19:01:23;7.40;;;3.35;;